sensor_id;sensor_type;location;lat;lon;timestamp;temperature;humidity
7516;DHT22;3799;47.184;8.538;2024-03-08T00:02:20;2.60;99.90
7516;DHT22;3799;47.184;8.538;2024-03-08T00:04:49;2.90;99.90
7516;DHT22;3799;47.184;8.538;2024-03-08T00:07:17;2.70;99.90
7516;DHT22;3799;47.184;8.538;2024-03-08T00:10:00;2.90;99.90
7516;DHT22;3799;47.184;8.538;2024-03-08T00:12:38;2.90;99.90
7516;DHT22;3799;47.184;8.538;2024-03-08T00:15:08;2.60;99.90
7516;DHT22;3799;47.184;8.538;2024-03-08T00:17:49;2.60;99.90
7516;DHT22;3799;47.184;8.538;2024-03-08T00:20:31;2.80;99.90
7516;DHT22;3799;47.184;8.538;2024-03-08T00:23:22;2.90;99.90
7516;DHT22;3799;47.184;8.538;2024-03-08T00:26:04;2.50;99.90
7516;DHT22;3799;47.184;8.538;2024-03-08T00:28:36;2.60;99.90
7516;DHT22;3799;47.184;8.538;2024-03-08T00:31:18;2.50;99.90
7516;DHT22;3799;47.184;8.538;2024-03-08T00:34:03;2.30;99.90
7516;DHT22;3799;47.184;8.538;2024-03-08T00:36:35;2.30;99.90
7516;DHT22;3799;47.184;8.538;2024-03-08T00:39:07;2.40;99.90
7516;DHT22;3799;47.184;8.538;2024-03-08T00:41:40;2.30;99.90
7516;DHT22;3799;47.184;8.538;2024-03-08T00:44:08;2.20;99.90
7516;DHT22;3799;47.184;8.538;2024-03-08T00:46:37;2.30;99.90
7516;DHT22;3799;47.184;8.538;2024-03-08T00:49:11;2.00;99.90
7516;DHT22;3799;47.184;8.538;2024-03-08T00:51:40;2.20;99.90
7516;DHT22;3799;47.184;8.538;2024-03-08T00:54:14;2.30;99.90
7516;DHT22;3799;47.184;8.538;2024-03-08T00:56:46;2.40;99.90
7516;DHT22;3799;47.184;8.538;2024-03-08T00:59:14;2.20;99.90
7516;DHT22;3799;47.184;8.538;2024-03-08T01:01:42;2.20;99.90
7516;DHT22;3799;47.184;8.538;2024-03-08T01:04:10;2.30;99.90
7516;DHT22;3799;47.184;8.538;2024-03-08T01:06:38;2.50;99.90
7516;DHT22;3799;47.184;8.538;2024-03-08T01:09:09;2.40;99.90
7516;DHT22;3799;47.184;8.538;2024-03-08T01:11:37;2.30;99.90
7516;DHT22;3799;47.184;8.538;2024-03-08T01:14:13;2.50;99.90
7516;DHT22;3799;47.184;8.538;2024-03-08T01:16:41;2.30;99.90
7516;DHT22;3799;47.184;8.538;2024-03-08T01:19:08;2.00;99.90
7516;DHT22;3799;47.184;8.538;2024-03-08T01:21:36;2.00;99.90
7516;DHT22;3799;47.184;8.538;2024-03-08T01:24:03;2.20;99.90
7516;DHT22;3799;47.184;8.538;2024-03-08T01:26:34;2.00;99.90
7516;DHT22;3799;47.184;8.538;2024-03-08T01:29:05;2.00;99.90
7516;DHT22;3799;47.184;8.538;2024-03-08T01:31:34;1.90;99.90
7516;DHT22;3799;47.184;8.538;2024-03-08T01:34:10;2.10;99.90
7516;DHT22;3799;47.184;8.538;2024-03-08T01:36:38;1.90;99.90
7516;DHT22;3799;47.184;8.538;2024-03-08T01:39:07;2.10;99.90
7516;DHT22;3799;47.184;8.538;2024-03-08T01:41:40;2.00;99.90
7516;DHT22;3799;47.184;8.538;2024-03-08T01:44:11;2.00;99.90
7516;DHT22;3799;47.184;8.538;2024-03-08T01:46:48;1.80;99.90
7516;DHT22;3799;47.184;8.538;2024-03-08T01:49:36;2.30;99.90
7516;DHT22;3799;47.184;8.538;2024-03-08T01:52:15;2.00;99.90
7516;DHT22;3799;47.184;8.538;2024-03-08T01:54:53;2.10;99.90
7516;DHT22;3799;47.184;8.538;2024-03-08T01:57:29;2.00;99.90
7516;DHT22;3799;47.184;8.538;2024-03-08T02:02:57;2.20;99.90
7516;DHT22;3799;47.184;8.538;2024-03-08T02:05:25;1.90;99.90
7516;DHT22;3799;47.184;8.538;2024-03-08T02:07:56;1.90;99.90
7516;DHT22;3799;47.184;8.538;2024-03-08T02:10:24;2.00;99.90
7516;DHT22;3799;47.184;8.538;2024-03-08T02:12:55;2.00;99.90
7516;DHT22;3799;47.184;8.538;2024-03-08T02:15:22;2.10;99.90
7516;DHT22;3799;47.184;8.538;2024-03-08T02:17:50;2.00;99.90
7516;DHT22;3799;47.184;8.538;2024-03-08T02:20:28;2.10;99.90
7516;DHT22;3799;47.184;8.538;2024-03-08T02:22:55;2.00;99.90
7516;DHT22;3799;47.184;8.538;2024-03-08T02:25:24;2.30;99.90
7516;DHT22;3799;47.184;8.538;2024-03-08T02:27:54;2.10;99.90
7516;DHT22;3799;47.184;8.538;2024-03-08T02:30:22;2.10;99.90
7516;DHT22;3799;47.184;8.538;2024-03-08T02:32:50;2.00;99.90
7516;DHT22;3799;47.184;8.538;2024-03-08T02:35:18;1.90;99.90
7516;DHT22;3799;47.184;8.538;2024-03-08T02:37:55;2.00;99.90
7516;DHT22;3799;47.184;8.538;2024-03-08T02:40:25;2.00;99.90
7516;DHT22;3799;47.184;8.538;2024-03-08T02:42:53;2.00;99.90
7516;DHT22;3799;47.184;8.538;2024-03-08T02:45:21;2.00;99.90
7516;DHT22;3799;47.184;8.538;2024-03-08T02:47:48;1.90;99.90
7516;DHT22;3799;47.184;8.538;2024-03-08T02:50:19;1.90;99.90
7516;DHT22;3799;47.184;8.538;2024-03-08T02:52:46;1.70;99.90
7516;DHT22;3799;47.184;8.538;2024-03-08T02:55:14;1.70;99.90
7516;DHT22;3799;47.184;8.538;2024-03-08T02:57:52;1.70;99.90
7516;DHT22;3799;47.184;8.538;2024-03-08T03:00:22;1.80;99.90
7516;DHT22;3799;47.184;8.538;2024-03-08T03:02:52;1.80;99.90
7516;DHT22;3799;47.184;8.538;2024-03-08T03:05:25;1.80;99.90
7516;DHT22;3799;47.184;8.538;2024-03-08T03:07:54;1.70;99.90
7516;DHT22;3799;47.184;8.538;2024-03-08T03:10:26;1.50;99.90
7516;DHT22;3799;47.184;8.538;2024-03-08T03:12:53;1.70;99.90
7516;DHT22;3799;47.184;8.538;2024-03-08T03:15:23;1.40;99.90
7516;DHT22;3799;47.184;8.538;2024-03-08T03:17:54;1.30;99.90
7516;DHT22;3799;47.184;8.538;2024-03-08T03:20:25;1.50;99.90
7516;DHT22;3799;47.184;8.538;2024-03-08T03:23:00;1.30;99.90
7516;DHT22;3799;47.184;8.538;2024-03-08T03:25:30;1.40;99.90
7516;DHT22;3799;47.184;8.538;2024-03-08T03:28:06;1.60;99.90
7516;DHT22;3799;47.184;8.538;2024-03-08T03:30:39;1.50;99.90
7516;DHT22;3799;47.184;8.538;2024-03-08T03:33:12;1.50;99.90
7516;DHT22;3799;47.184;8.538;2024-03-08T03:36:03;1.50;99.90
7516;DHT22;3799;47.184;8.538;2024-03-08T03:38:32;1.50;99.90
7516;DHT22;3799;47.184;8.538;2024-03-08T03:41:04;1.50;99.90
7516;DHT22;3799;47.184;8.538;2024-03-08T03:43:42;1.50;99.90
7516;DHT22;3799;47.184;8.538;2024-03-08T03:46:10;1.60;99.90
7516;DHT22;3799;47.184;8.538;2024-03-08T03:48:39;1.60;99.90
7516;DHT22;3799;47.184;8.538;2024-03-08T03:51:10;1.60;99.90
7516;DHT22;3799;47.184;8.538;2024-03-08T03:53:41;1.30;99.90
7516;DHT22;3799;47.184;8.538;2024-03-08T03:56:09;1.60;99.90
7516;DHT22;3799;47.184;8.538;2024-03-08T03:58:37;1.30;99.90
7516;DHT22;3799;47.184;8.538;2024-03-08T04:01:14;1.30;99.90
7516;DHT22;3799;47.184;8.538;2024-03-08T04:03:46;1.30;99.90
7516;DHT22;3799;47.184;8.538;2024-03-08T04:06:17;1.40;99.90
7516;DHT22;3799;47.184;8.538;2024-03-08T04:08:47;1.30;99.90
7516;DHT22;3799;47.184;8.538;2024-03-08T04:11:14;1.20;99.90
7516;DHT22;3799;47.184;8.538;2024-03-08T04:13:47;1.20;99.90
7516;DHT22;3799;47.184;8.538;2024-03-08T04:16:15;1.30;99.90
7516;DHT22;3799;47.184;8.538;2024-03-08T04:18:48;1.20;99.90
7516;DHT22;3799;47.184;8.538;2024-03-08T04:24:21;1.40;99.90
7516;DHT22;3799;47.184;8.538;2024-03-08T04:27:04;1.20;99.90
7516;DHT22;3799;47.184;8.538;2024-03-08T04:29:35;1.50;99.90
7516;DHT22;3799;47.184;8.538;2024-03-08T04:32:14;1.40;99.90
7516;DHT22;3799;47.184;8.538;2024-03-08T04:35:06;1.50;99.90
7516;DHT22;3799;47.184;8.538;2024-03-08T04:37:36;1.30;99.90
7516;DHT22;3799;47.184;8.538;2024-03-08T04:40:50;1.50;99.90
7516;DHT22;3799;47.184;8.538;2024-03-08T04:43:20;1.50;99.90
7516;DHT22;3799;47.184;8.538;2024-03-08T04:45:51;1.70;99.90
7516;DHT22;3799;47.184;8.538;2024-03-08T04:48:21;1.60;99.90
7516;DHT22;3799;47.184;8.538;2024-03-08T04:50:49;1.70;99.90
7516;DHT22;3799;47.184;8.538;2024-03-08T04:53:16;1.80;99.90
7516;DHT22;3799;47.184;8.538;2024-03-08T04:55:45;1.70;99.90
7516;DHT22;3799;47.184;8.538;2024-03-08T04:58:13;1.80;99.90
7516;DHT22;3799;47.184;8.538;2024-03-08T05:00:43;1.50;99.90
7516;DHT22;3799;47.184;8.538;2024-03-08T05:03:24;1.70;99.90
7516;DHT22;3799;47.184;8.538;2024-03-08T05:05:56;1.70;99.90
7516;DHT22;3799;47.184;8.538;2024-03-08T05:08:33;1.60;99.90
7516;DHT22;3799;47.184;8.538;2024-03-08T05:11:26;1.80;99.90
7516;DHT22;3799;47.184;8.538;2024-03-08T05:13:54;1.70;99.90
7516;DHT22;3799;47.184;8.538;2024-03-08T05:16:34;1.80;99.90
7516;DHT22;3799;47.184;8.538;2024-03-08T05:19:03;1.70;99.90
7516;DHT22;3799;47.184;8.538;2024-03-08T05:21:37;1.90;99.90
7516;DHT22;3799;47.184;8.538;2024-03-08T05:24:04;1.80;99.90
7516;DHT22;3799;47.184;8.538;2024-03-08T05:26:35;1.80;99.90
7516;DHT22;3799;47.184;8.538;2024-03-08T05:29:04;1.80;99.90
7516;DHT22;3799;47.184;8.538;2024-03-08T05:31:47;1.70;99.90
7516;DHT22;3799;47.184;8.538;2024-03-08T05:34:18;1.80;99.90
7516;DHT22;3799;47.184;8.538;2024-03-08T05:36:49;1.70;99.90
7516;DHT22;3799;47.184;8.538;2024-03-08T05:39:33;2.00;99.90
7516;DHT22;3799;47.184;8.538;2024-03-08T05:42:01;2.00;99.90
7516;DHT22;3799;47.184;8.538;2024-03-08T05:44:31;1.80;99.90
7516;DHT22;3799;47.184;8.538;2024-03-08T05:47:04;1.90;99.90
7516;DHT22;3799;47.184;8.538;2024-03-08T05:49:32;2.00;99.90
7516;DHT22;3799;47.184;8.538;2024-03-08T05:51:59;1.90;99.90
7516;DHT22;3799;47.184;8.538;2024-03-08T05:54:27;2.00;99.90
7516;DHT22;3799;47.184;8.538;2024-03-08T05:56:58;2.10;99.90
7516;DHT22;3799;47.184;8.538;2024-03-08T05:59:26;2.10;99.90
7516;DHT22;3799;47.184;8.538;2024-03-08T06:02:02;1.90;99.90
7516;DHT22;3799;47.184;8.538;2024-03-08T06:04:33;2.20;99.90
7516;DHT22;3799;47.184;8.538;2024-03-08T06:07:06;2.00;99.90
7516;DHT22;3799;47.184;8.538;2024-03-08T06:09:42;1.90;99.90
7516;DHT22;3799;47.184;8.538;2024-03-08T06:12:12;1.80;99.90
7516;DHT22;3799;47.184;8.538;2024-03-08T06:14:46;2.00;99.90
7516;DHT22;3799;47.184;8.538;2024-03-08T06:17:25;2.30;99.90
7516;DHT22;3799;47.184;8.538;2024-03-08T06:19:55;2.20;99.90
7516;DHT22;3799;47.184;8.538;2024-03-08T06:22:30;2.20;99.90
7516;DHT22;3799;47.184;8.538;2024-03-08T06:25:03;2.30;99.90
7516;DHT22;3799;47.184;8.538;2024-03-08T06:27:33;2.30;99.90
7516;DHT22;3799;47.184;8.538;2024-03-08T06:30:01;2.30;99.90
7516;DHT22;3799;47.184;8.538;2024-03-08T06:32:31;2.50;99.90
7516;DHT22;3799;47.184;8.538;2024-03-08T06:35:07;2.50;99.90
7516;DHT22;3799;47.184;8.538;2024-03-08T06:37:39;2.60;99.90
7516;DHT22;3799;47.184;8.538;2024-03-08T06:40:18;2.40;99.90
7516;DHT22;3799;47.184;8.538;2024-03-08T06:43:01;2.40;99.90
7516;DHT22;3799;47.184;8.538;2024-03-08T06:45:45;2.50;99.90
7516;DHT22;3799;47.184;8.538;2024-03-08T06:48:19;2.60;99.90
7516;DHT22;3799;47.184;8.538;2024-03-08T06:50:47;2.60;99.90
7516;DHT22;3799;47.184;8.538;2024-03-08T06:53:15;2.70;99.90
7516;DHT22;3799;47.184;8.538;2024-03-08T06:55:45;2.60;99.90
7516;DHT22;3799;47.184;8.538;2024-03-08T06:58:14;2.70;99.90
7516;DHT22;3799;47.184;8.538;2024-03-08T07:00:41;2.60;99.90
7516;DHT22;3799;47.184;8.538;2024-03-08T07:03:09;2.60;99.90
7516;DHT22;3799;47.184;8.538;2024-03-08T07:05:42;2.60;99.90
7516;DHT22;3799;47.184;8.538;2024-03-08T07:08:21;2.90;99.90
7516;DHT22;3799;47.184;8.538;2024-03-08T07:11:15;2.90;99.90
7516;DHT22;3799;47.184;8.538;2024-03-08T07:13:51;3.00;99.90
7516;DHT22;3799;47.184;8.538;2024-03-08T07:16:22;3.40;99.90
7516;DHT22;3799;47.184;8.538;2024-03-08T07:18:51;3.40;99.90
7516;DHT22;3799;47.184;8.538;2024-03-08T07:21:20;3.40;99.90
7516;DHT22;3799;47.184;8.538;2024-03-08T07:23:47;3.30;99.90
7516;DHT22;3799;47.184;8.538;2024-03-08T07:26:36;3.40;99.90
7516;DHT22;3799;47.184;8.538;2024-03-08T07:29:05;3.60;99.90
7516;DHT22;3799;47.184;8.538;2024-03-08T07:31:36;3.50;99.90
7516;DHT22;3799;47.184;8.538;2024-03-08T07:34:08;3.60;99.90
7516;DHT22;3799;47.184;8.538;2024-03-08T07:36:36;3.90;99.90
7516;DHT22;3799;47.184;8.538;2024-03-08T07:39:06;3.90;99.90
7516;DHT22;3799;47.184;8.538;2024-03-08T07:41:40;3.90;99.90
7516;DHT22;3799;47.184;8.538;2024-03-08T07:44:11;4.00;99.90
7516;DHT22;3799;47.184;8.538;2024-03-08T07:46:41;4.00;99.90
7516;DHT22;3799;47.184;8.538;2024-03-08T07:49:13;4.20;99.90
7516;DHT22;3799;47.184;8.538;2024-03-08T07:51:42;4.10;99.90
7516;DHT22;3799;47.184;8.538;2024-03-08T07:54:10;4.30;99.90
7516;DHT22;3799;47.184;8.538;2024-03-08T07:56:41;4.60;99.90
7516;DHT22;3799;47.184;8.538;2024-03-08T07:59:09;4.30;99.90
7516;DHT22;3799;47.184;8.538;2024-03-08T08:01:41;4.60;99.90
7516;DHT22;3799;47.184;8.538;2024-03-08T08:04:09;4.50;99.90
7516;DHT22;3799;47.184;8.538;2024-03-08T08:06:39;4.70;99.90
7516;DHT22;3799;47.184;8.538;2024-03-08T08:09:10;4.50;99.90
7516;DHT22;3799;47.184;8.538;2024-03-08T08:11:41;4.50;99.90
7516;DHT22;3799;47.184;8.538;2024-03-08T08:14:12;4.70;99.90
7516;DHT22;3799;47.184;8.538;2024-03-08T08:16:48;4.60;99.90
7516;DHT22;3799;47.184;8.538;2024-03-08T08:19:20;4.60;99.90
7516;DHT22;3799;47.184;8.538;2024-03-08T08:21:58;4.50;99.90
7516;DHT22;3799;47.184;8.538;2024-03-08T08:24:25;4.50;99.90
7516;DHT22;3799;47.184;8.538;2024-03-08T08:26:53;5.00;99.90
7516;DHT22;3799;47.184;8.538;2024-03-08T08:29:23;4.90;99.90
7516;DHT22;3799;47.184;8.538;2024-03-08T08:31:51;5.00;99.90
7516;DHT22;3799;47.184;8.538;2024-03-08T08:34:21;5.20;99.90
7516;DHT22;3799;47.184;8.538;2024-03-08T08:37:00;5.20;99.90
7516;DHT22;3799;47.184;8.538;2024-03-08T08:39:28;5.30;99.90
7516;DHT22;3799;47.184;8.538;2024-03-08T08:41:55;5.30;99.90
7516;DHT22;3799;47.184;8.538;2024-03-08T08:44:23;5.60;99.90
7516;DHT22;3799;47.184;8.538;2024-03-08T08:46:57;5.40;99.90
7516;DHT22;3799;47.184;8.538;2024-03-08T08:49:40;5.40;99.90
7516;DHT22;3799;47.184;8.538;2024-03-08T08:52:09;5.50;99.90
7516;DHT22;3799;47.184;8.538;2024-03-08T08:54:43;5.50;99.90
7516;DHT22;3799;47.184;8.538;2024-03-08T08:57:18;5.50;99.90
7516;DHT22;3799;47.184;8.538;2024-03-08T08:59:54;5.70;99.90
7516;DHT22;3799;47.184;8.538;2024-03-08T09:02:24;5.50;99.90
7516;DHT22;3799;47.184;8.538;2024-03-08T09:04:55;5.70;99.90
7516;DHT22;3799;47.184;8.538;2024-03-08T09:07:25;5.60;99.90
7516;DHT22;3799;47.184;8.538;2024-03-08T09:09:56;5.60;99.90
7516;DHT22;3799;47.184;8.538;2024-03-08T09:12:26;5.70;99.90
7516;DHT22;3799;47.184;8.538;2024-03-08T09:14:53;5.70;99.90
7516;DHT22;3799;47.184;8.538;2024-03-08T09:17:21;5.90;99.90
7516;DHT22;3799;47.184;8.538;2024-03-08T09:19:55;5.90;99.90
7516;DHT22;3799;47.184;8.538;2024-03-08T09:22:35;5.70;99.90
7516;DHT22;3799;47.184;8.538;2024-03-08T09:25:08;5.80;99.90
7516;DHT22;3799;47.184;8.538;2024-03-08T09:27:42;5.90;99.90
7516;DHT22;3799;47.184;8.538;2024-03-08T09:30:13;6.10;99.90
7516;DHT22;3799;47.184;8.538;2024-03-08T09:32:45;6.10;99.90
7516;DHT22;3799;47.184;8.538;2024-03-08T09:35:14;6.00;99.90
7516;DHT22;3799;47.184;8.538;2024-03-08T09:37:50;6.30;99.90
7516;DHT22;3799;47.184;8.538;2024-03-08T09:40:24;6.30;99.90
7516;DHT22;3799;47.184;8.538;2024-03-08T09:42:53;6.40;99.90
7516;DHT22;3799;47.184;8.538;2024-03-08T09:45:21;6.40;99.90
7516;DHT22;3799;47.184;8.538;2024-03-08T09:48:01;6.30;99.90
7516;DHT22;3799;47.184;8.538;2024-03-08T09:50:29;6.90;99.90
7516;DHT22;3799;47.184;8.538;2024-03-08T09:52:56;6.70;99.90
7516;DHT22;3799;47.184;8.538;2024-03-08T09:55:26;6.90;99.90
7516;DHT22;3799;47.184;8.538;2024-03-08T09:58:15;6.90;99.90
7516;DHT22;3799;47.184;8.538;2024-03-08T10:00:55;6.90;99.90
7516;DHT22;3799;47.184;8.538;2024-03-08T10:03:30;7.30;99.90
7516;DHT22;3799;47.184;8.538;2024-03-08T10:06:00;7.40;99.90
7516;DHT22;3799;47.184;8.538;2024-03-08T10:08:30;7.50;99.90
7516;DHT22;3799;47.184;8.538;2024-03-08T10:11:18;7.50;99.90
7516;DHT22;3799;47.184;8.538;2024-03-08T10:13:50;7.40;99.90
7516;DHT22;3799;47.184;8.538;2024-03-08T10:16:19;7.40;99.90
7516;DHT22;3799;47.184;8.538;2024-03-08T10:18:59;7.00;99.90
7516;DHT22;3799;47.184;8.538;2024-03-08T10:21:29;7.00;99.90
7516;DHT22;3799;47.184;8.538;2024-03-08T10:23:56;7.20;99.90
7516;DHT22;3799;47.184;8.538;2024-03-08T10:26:27;7.10;99.90
7516;DHT22;3799;47.184;8.538;2024-03-08T10:28:57;6.90;99.90
7516;DHT22;3799;47.184;8.538;2024-03-08T10:31:29;7.10;99.90
7516;DHT22;3799;47.184;8.538;2024-03-08T10:34:02;7.20;99.90
7516;DHT22;3799;47.184;8.538;2024-03-08T10:36:34;7.20;99.90
7516;DHT22;3799;47.184;8.538;2024-03-08T10:39:25;6.80;99.90
7516;DHT22;3799;47.184;8.538;2024-03-08T10:42:10;6.70;99.90
7516;DHT22;3799;47.184;8.538;2024-03-08T10:44:51;6.80;99.90
7516;DHT22;3799;47.184;8.538;2024-03-08T10:47:30;6.60;99.90
7516;DHT22;3799;47.184;8.538;2024-03-08T10:50:16;6.70;99.90
7516;DHT22;3799;47.184;8.538;2024-03-08T10:53:00;6.80;99.90
7516;DHT22;3799;47.184;8.538;2024-03-08T10:55:46;7.40;99.90
7516;DHT22;3799;47.184;8.538;2024-03-08T10:58:46;7.60;99.90
7516;DHT22;3799;47.184;8.538;2024-03-08T11:01:15;8.00;99.90
7516;DHT22;3799;47.184;8.538;2024-03-08T11:07:49;8.60;99.90
7516;DHT22;3799;47.184;8.538;2024-03-08T11:10:23;8.60;99.90
7516;DHT22;3799;47.184;8.538;2024-03-08T11:12:54;8.90;99.90
7516;DHT22;3799;47.184;8.538;2024-03-08T11:15:42;8.90;99.90
7516;DHT22;3799;47.184;8.538;2024-03-08T11:18:26;9.30;99.90
7516;DHT22;3799;47.184;8.538;2024-03-08T11:20:57;9.40;99.90
7516;DHT22;3799;47.184;8.538;2024-03-08T11:23:30;9.80;99.90
7516;DHT22;3799;47.184;8.538;2024-03-08T11:26:02;9.90;99.90
7516;DHT22;3799;47.184;8.538;2024-03-08T11:28:35;10.10;99.90
7516;DHT22;3799;47.184;8.538;2024-03-08T11:31:24;10.40;99.90
7516;DHT22;3799;47.184;8.538;2024-03-08T11:33:56;10.70;99.50
7516;DHT22;3799;47.184;8.538;2024-03-08T11:36:28;10.90;97.60
7516;DHT22;3799;47.184;8.538;2024-03-08T11:39:18;11.10;96.90
7516;DHT22;3799;47.184;8.538;2024-03-08T11:41:59;11.10;95.20
7516;DHT22;3799;47.184;8.538;2024-03-08T11:44:45;10.80;94.00
7516;DHT22;3799;47.184;8.538;2024-03-08T11:47:21;10.70;94.00
7516;DHT22;3799;47.184;8.538;2024-03-08T11:50:03;10.70;93.80
7516;DHT22;3799;47.184;8.538;2024-03-08T11:52:44;10.70;94.00
7516;DHT22;3799;47.184;8.538;2024-03-08T11:55:16;10.70;94.10
7516;DHT22;3799;47.184;8.538;2024-03-08T11:58:18;10.90;94.30
7516;DHT22;3799;47.184;8.538;2024-03-08T12:01:05;10.90;94.00
7516;DHT22;3799;47.184;8.538;2024-03-08T12:03:53;11.10;94.00
7516;DHT22;3799;47.184;8.538;2024-03-08T12:07:09;11.40;93.50
7516;DHT22;3799;47.184;8.538;2024-03-08T12:10:18;11.40;92.30
7516;DHT22;3799;47.184;8.538;2024-03-08T12:12:56;11.30;92.80
7516;DHT22;3799;47.184;8.538;2024-03-08T12:15:41;11.60;92.10
7516;DHT22;3799;47.184;8.538;2024-03-08T12:18:44;11.90;91.30
7516;DHT22;3799;47.184;8.538;2024-03-08T12:21:16;11.90;91.00
7516;DHT22;3799;47.184;8.538;2024-03-08T12:24:14;11.90;90.30
7516;DHT22;3799;47.184;8.538;2024-03-08T12:27:18;12.20;90.20
7516;DHT22;3799;47.184;8.538;2024-03-08T12:29:51;12.20;87.80
7516;DHT22;3799;47.184;8.538;2024-03-08T12:32:28;12.20;86.70
7516;DHT22;3799;47.184;8.538;2024-03-08T12:35:00;12.40;84.50
7516;DHT22;3799;47.184;8.538;2024-03-08T12:37:29;12.20;85.00
7516;DHT22;3799;47.184;8.538;2024-03-08T12:40:10;12.20;84.80
7516;DHT22;3799;47.184;8.538;2024-03-08T12:42:51;12.60;83.90
7516;DHT22;3799;47.184;8.538;2024-03-08T12:45:30;12.80;81.20
7516;DHT22;3799;47.184;8.538;2024-03-08T12:48:01;12.50;80.00
7516;DHT22;3799;47.184;8.538;2024-03-08T12:53:32;13.00;81.40
7516;DHT22;3799;47.184;8.538;2024-03-08T12:56:29;13.00;77.90
7516;DHT22;3799;47.184;8.538;2024-03-08T12:59:15;13.30;78.40
7516;DHT22;3799;47.184;8.538;2024-03-08T13:01:52;13.70;78.40
7516;DHT22;3799;47.184;8.538;2024-03-08T13:04:30;13.80;74.70
7516;DHT22;3799;47.184;8.538;2024-03-08T13:07:07;13.80;74.40
7516;DHT22;3799;47.184;8.538;2024-03-08T13:09:48;13.80;73.30
7516;DHT22;3799;47.184;8.538;2024-03-08T13:12:25;14.00;72.70
7516;DHT22;3799;47.184;8.538;2024-03-08T13:14:55;14.50;70.90
7516;DHT22;3799;47.184;8.538;2024-03-08T13:17:24;14.40;69.90
7516;DHT22;3799;47.184;8.538;2024-03-08T13:19:54;14.30;70.30
7516;DHT22;3799;47.184;8.538;2024-03-08T13:22:33;14.60;67.80
7516;DHT22;3799;47.184;8.538;2024-03-08T13:25:04;14.90;67.20
7516;DHT22;3799;47.184;8.538;2024-03-08T13:27:43;14.80;65.60
7516;DHT22;3799;47.184;8.538;2024-03-08T13:30:11;15.20;66.10
7516;DHT22;3799;47.184;8.538;2024-03-08T13:32:45;15.20;64.70
7516;DHT22;3799;47.184;8.538;2024-03-08T13:35:36;15.30;62.90
7516;DHT22;3799;47.184;8.538;2024-03-08T13:38:18;15.30;61.90
7516;DHT22;3799;47.184;8.538;2024-03-08T13:40:56;15.50;60.90
7516;DHT22;3799;47.184;8.538;2024-03-08T13:43:27;15.40;62.30
7516;DHT22;3799;47.184;8.538;2024-03-08T13:45:55;15.40;62.60
7516;DHT22;3799;47.184;8.538;2024-03-08T13:48:29;15.70;62.50
7516;DHT22;3799;47.184;8.538;2024-03-08T13:50:59;15.80;63.50
7516;DHT22;3799;47.184;8.538;2024-03-08T13:54:03;16.20;60.70
7516;DHT22;3799;47.184;8.538;2024-03-08T13:56:38;16.50;60.50
7516;DHT22;3799;47.184;8.538;2024-03-08T13:59:12;16.60;58.60
7516;DHT22;3799;47.184;8.538;2024-03-08T14:01:44;16.60;59.00
7516;DHT22;3799;47.184;8.538;2024-03-08T14:04:15;16.60;57.90
7516;DHT22;3799;47.184;8.538;2024-03-08T14:06:48;16.50;58.10
7516;DHT22;3799;47.184;8.538;2024-03-08T14:09:18;16.50;58.90
7516;DHT22;3799;47.184;8.538;2024-03-08T14:11:46;16.60;59.00
7516;DHT22;3799;47.184;8.538;2024-03-08T14:14:32;16.80;57.90
7516;DHT22;3799;47.184;8.538;2024-03-08T14:17:18;16.90;57.90
7516;DHT22;3799;47.184;8.538;2024-03-08T14:19:54;16.70;57.70
7516;DHT22;3799;47.184;8.538;2024-03-08T14:22:26;16.70;58.60
7516;DHT22;3799;47.184;8.538;2024-03-08T14:25:15;16.80;57.90
7516;DHT22;3799;47.184;8.538;2024-03-08T14:28:12;16.90;57.50
7516;DHT22;3799;47.184;8.538;2024-03-08T14:30:44;16.80;57.40
7516;DHT22;3799;47.184;8.538;2024-03-08T14:34:05;16.70;57.70
7516;DHT22;3799;47.184;8.538;2024-03-08T14:36:43;16.70;57.80
7516;DHT22;3799;47.184;8.538;2024-03-08T14:39:21;16.60;56.60
7516;DHT22;3799;47.184;8.538;2024-03-08T14:42:10;16.10;57.30
7516;DHT22;3799;47.184;8.538;2024-03-08T14:45:05;15.80;57.40
7516;DHT22;3799;47.184;8.538;2024-03-08T14:47:51;15.70;57.60
7516;DHT22;3799;47.184;8.538;2024-03-08T14:50:41;15.80;57.30
7516;DHT22;3799;47.184;8.538;2024-03-08T14:53:20;15.80;57.30
7516;DHT22;3799;47.184;8.538;2024-03-08T14:56:00;15.50;57.70
7516;DHT22;3799;47.184;8.538;2024-03-08T14:58:49;15.20;58.10
7516;DHT22;3799;47.184;8.538;2024-03-08T15:01:36;15.10;58.40
7516;DHT22;3799;47.184;8.538;2024-03-08T15:04:28;14.90;58.90
7516;DHT22;3799;47.184;8.538;2024-03-08T15:07:19;14.50;58.70
7516;DHT22;3799;47.184;8.538;2024-03-08T15:09:59;14.40;58.90
7516;DHT22;3799;47.184;8.538;2024-03-08T15:16:02;14.10;58.80
7516;DHT22;3799;47.184;8.538;2024-03-08T15:18:56;14.00;59.60
7516;DHT22;3799;47.184;8.538;2024-03-08T15:21:36;14.40;60.80
7516;DHT22;3799;47.184;8.538;2024-03-08T15:24:23;14.90;59.80
7516;DHT22;3799;47.184;8.538;2024-03-08T15:27:19;15.60;59.60
7516;DHT22;3799;47.184;8.538;2024-03-08T15:29:56;16.20;58.00
7516;DHT22;3799;47.184;8.538;2024-03-08T15:32:52;16.60;57.30
7516;DHT22;3799;47.184;8.538;2024-03-08T15:35:45;16.80;56.50
7516;DHT22;3799;47.184;8.538;2024-03-08T15:38:17;16.60;55.80
7516;DHT22;3799;47.184;8.538;2024-03-08T15:40:49;16.30;55.70
7516;DHT22;3799;47.184;8.538;2024-03-08T15:43:27;16.00;55.80
7516;DHT22;3799;47.184;8.538;2024-03-08T15:46:03;15.50;55.90
7516;DHT22;3799;47.184;8.538;2024-03-08T15:48:36;15.10;56.70
7516;DHT22;3799;47.184;8.538;2024-03-08T15:54:08;14.00;58.40
7516;DHT22;3799;47.184;8.538;2024-03-08T15:56:47;13.90;58.90
7516;DHT22;3799;47.184;8.538;2024-03-08T15:59:24;13.90;59.20
7516;DHT22;3799;47.184;8.538;2024-03-08T16:01:57;13.70;59.50
7516;DHT22;3799;47.184;8.538;2024-03-08T16:04:28;13.90;60.00
7516;DHT22;3799;47.184;8.538;2024-03-08T16:07:26;13.70;59.50
7516;DHT22;3799;47.184;8.538;2024-03-08T16:10:02;13.70;59.50
7516;DHT22;3799;47.184;8.538;2024-03-08T16:12:43;13.90;59.20
7516;DHT22;3799;47.184;8.538;2024-03-08T16:15:26;13.80;59.40
7516;DHT22;3799;47.184;8.538;2024-03-08T16:18:18;13.90;59.70
7516;DHT22;3799;47.184;8.538;2024-03-08T16:20:54;14.10;59.30
7516;DHT22;3799;47.184;8.538;2024-03-08T16:23:38;13.80;58.70
7516;DHT22;3799;47.184;8.538;2024-03-08T16:26:22;13.80;59.10
7516;DHT22;3799;47.184;8.538;2024-03-08T16:29:24;13.50;58.90
7516;DHT22;3799;47.184;8.538;2024-03-08T16:32:03;13.10;59.60
7516;DHT22;3799;47.184;8.538;2024-03-08T16:34:40;12.80;59.70
7516;DHT22;3799;47.184;8.538;2024-03-08T16:37:19;12.80;60.70
7516;DHT22;3799;47.184;8.538;2024-03-08T16:39:57;12.50;61.40
7516;DHT22;3799;47.184;8.538;2024-03-08T16:42:33;11.90;62.40
7516;DHT22;3799;47.184;8.538;2024-03-08T16:45:07;11.60;64.50
7516;DHT22;3799;47.184;8.538;2024-03-08T16:47:50;11.10;66.80
7516;DHT22;3799;47.184;8.538;2024-03-08T16:50:44;10.80;68.70
7516;DHT22;3799;47.184;8.538;2024-03-08T16:53:31;10.30;70.20
7516;DHT22;3799;47.184;8.538;2024-03-08T16:56:27;10.20;72.60
7516;DHT22;3799;47.184;8.538;2024-03-08T16:59:01;10.00;75.40
7516;DHT22;3799;47.184;8.538;2024-03-08T17:01:45;9.70;79.70
7516;DHT22;3799;47.184;8.538;2024-03-08T17:11:21;8.90;91.00
7516;DHT22;3799;47.184;8.538;2024-03-08T17:14:08;8.80;93.60
7516;DHT22;3799;47.184;8.538;2024-03-08T17:16:57;8.80;95.80
7516;DHT22;3799;47.184;8.538;2024-03-08T17:19:35;8.60;97.20
7516;DHT22;3799;47.184;8.538;2024-03-08T17:22:41;8.50;99.10
7516;DHT22;3799;47.184;8.538;2024-03-08T17:25:11;8.60;99.90
7516;DHT22;3799;47.184;8.538;2024-03-08T17:28:07;8.70;99.90
7516;DHT22;3799;47.184;8.538;2024-03-08T17:31:02;8.70;99.90
7516;DHT22;3799;47.184;8.538;2024-03-08T17:34:12;8.50;99.90
7516;DHT22;3799;47.184;8.538;2024-03-08T17:37:13;8.50;99.90